sensor_id;sensor_type;location;lat;lon;timestamp;temperature;humidity
48860;DHT22;34679;51.436;-2.518;2023-05-14T00:01:40;9.50;99.90
48860;DHT22;34679;51.436;-2.518;2023-05-14T00:04:06;9.50;99.90
48860;DHT22;34679;51.436;-2.518;2023-05-14T00:06:32;9.50;99.90
48860;DHT22;34679;51.436;-2.518;2023-05-14T00:08:58;9.40;99.90
48860;DHT22;34679;51.436;-2.518;2023-05-14T00:11:23;9.40;99.90
48860;DHT22;34679;51.436;-2.518;2023-05-14T00:13:49;9.40;99.90
48860;DHT22;34679;51.436;-2.518;2023-05-14T00:16:15;9.40;99.90
48860;DHT22;34679;51.436;-2.518;2023-05-14T00:18:41;9.30;99.90
48860;DHT22;34679;51.436;-2.518;2023-05-14T00:21:07;9.20;99.90
48860;DHT22;34679;51.436;-2.518;2023-05-14T00:23:32;9.20;99.90
48860;DHT22;34679;51.436;-2.518;2023-05-14T00:25:58;9.20;99.90
48860;DHT22;34679;51.436;-2.518;2023-05-14T00:28:24;9.20;99.90
48860;DHT22;34679;51.436;-2.518;2023-05-14T00:30:50;9.20;99.90
48860;DHT22;34679;51.436;-2.518;2023-05-14T00:33:18;9.10;99.90
48860;DHT22;34679;51.436;-2.518;2023-05-14T00:35:44;9.10;99.90
48860;DHT22;34679;51.436;-2.518;2023-05-14T00:38:10;9.10;99.90
48860;DHT22;34679;51.436;-2.518;2023-05-14T00:40:41;9.20;99.90
48860;DHT22;34679;51.436;-2.518;2023-05-14T00:43:10;9.20;99.90
48860;DHT22;34679;51.436;-2.518;2023-05-14T00:45:37;9.10;99.90
48860;DHT22;34679;51.436;-2.518;2023-05-14T00:48:03;9.10;99.90
48860;DHT22;34679;51.436;-2.518;2023-05-14T00:50:29;9.10;99.90
48860;DHT22;34679;51.436;-2.518;2023-05-14T00:52:54;9.10;99.90
48860;DHT22;34679;51.436;-2.518;2023-05-14T00:55:20;9.00;99.90
48860;DHT22;34679;51.436;-2.518;2023-05-14T00:57:47;8.90;99.90
48860;DHT22;34679;51.436;-2.518;2023-05-14T01:00:17;8.90;99.90
48860;DHT22;34679;51.436;-2.518;2023-05-14T01:02:43;8.90;99.90
48860;DHT22;34679;51.436;-2.518;2023-05-14T01:05:08;8.90;99.90
48860;DHT22;34679;51.436;-2.518;2023-05-14T01:10:16;8.80;99.90
48860;DHT22;34679;51.436;-2.518;2023-05-14T01:13:14;8.70;99.90
48860;DHT22;34679;51.436;-2.518;2023-05-14T01:15:44;8.70;99.90
48860;DHT22;34679;51.436;-2.518;2023-05-14T01:18:14;8.70;99.90
48860;DHT22;34679;51.436;-2.518;2023-05-14T01:20:41;8.60;99.90
48860;DHT22;34679;51.436;-2.518;2023-05-14T01:23:08;8.60;99.90
48860;DHT22;34679;51.436;-2.518;2023-05-14T01:25:34;8.60;99.90
48860;DHT22;34679;51.436;-2.518;2023-05-14T01:28:22;8.60;99.90
48860;DHT22;34679;51.436;-2.518;2023-05-14T01:31:13;8.70;99.90
48860;DHT22;34679;51.436;-2.518;2023-05-14T01:33:41;8.50;99.90
48860;DHT22;34679;51.436;-2.518;2023-05-14T01:36:08;8.50;99.90
48860;DHT22;34679;51.436;-2.518;2023-05-14T01:38:35;8.40;99.90
48860;DHT22;34679;51.436;-2.518;2023-05-14T01:41:01;8.30;99.90
48860;DHT22;34679;51.436;-2.518;2023-05-14T01:43:27;8.30;99.90
48860;DHT22;34679;51.436;-2.518;2023-05-14T01:45:54;8.30;99.90
48860;DHT22;34679;51.436;-2.518;2023-05-14T01:48:20;8.30;99.90
48860;DHT22;34679;51.436;-2.518;2023-05-14T01:50:46;8.30;99.90
48860;DHT22;34679;51.436;-2.518;2023-05-14T01:53:12;8.30;99.90
48860;DHT22;34679;51.436;-2.518;2023-05-14T01:55:37;8.30;99.90
48860;DHT22;34679;51.436;-2.518;2023-05-14T01:58:03;8.20;99.90
48860;DHT22;34679;51.436;-2.518;2023-05-14T02:00:29;8.20;99.90
48860;DHT22;34679;51.436;-2.518;2023-05-14T02:02:55;8.10;99.90
48860;DHT22;34679;51.436;-2.518;2023-05-14T02:05:20;8.10;99.90
48860;DHT22;34679;51.436;-2.518;2023-05-14T02:07:46;8.00;99.90
48860;DHT22;34679;51.436;-2.518;2023-05-14T02:10:12;8.00;99.90
48860;DHT22;34679;51.436;-2.518;2023-05-14T02:12:37;7.90;99.90
48860;DHT22;34679;51.436;-2.518;2023-05-14T02:15:03;7.90;99.90
48860;DHT22;34679;51.436;-2.518;2023-05-14T02:17:30;8.00;99.90
48860;DHT22;34679;51.436;-2.518;2023-05-14T02:19:56;8.00;99.90
48860;DHT22;34679;51.436;-2.518;2023-05-14T02:22:21;7.90;99.90
48860;DHT22;34679;51.436;-2.518;2023-05-14T02:24:47;7.90;99.90
48860;DHT22;34679;51.436;-2.518;2023-05-14T02:27:14;7.80;99.90
48860;DHT22;34679;51.436;-2.518;2023-05-14T02:29:42;7.80;99.90
48860;DHT22;34679;51.436;-2.518;2023-05-14T02:32:07;7.80;99.90
48860;DHT22;34679;51.436;-2.518;2023-05-14T02:34:33;7.90;99.90
48860;DHT22;34679;51.436;-2.518;2023-05-14T02:36:59;7.90;99.90
48860;DHT22;34679;51.436;-2.518;2023-05-14T02:39:25;7.90;99.90
48860;DHT22;34679;51.436;-2.518;2023-05-14T02:41:51;7.90;99.90
48860;DHT22;34679;51.436;-2.518;2023-05-14T02:44:16;7.90;99.90
48860;DHT22;34679;51.436;-2.518;2023-05-14T02:46:42;7.90;99.90
48860;DHT22;34679;51.436;-2.518;2023-05-14T02:49:08;7.80;99.90
48860;DHT22;34679;51.436;-2.518;2023-05-14T02:51:34;7.90;99.90
48860;DHT22;34679;51.436;-2.518;2023-05-14T02:54:00;7.80;99.90
48860;DHT22;34679;51.436;-2.518;2023-05-14T02:56:25;7.80;99.90
48860;DHT22;34679;51.436;-2.518;2023-05-14T02:58:51;7.80;99.90
48860;DHT22;34679;51.436;-2.518;2023-05-14T03:01:17;7.80;99.90
48860;DHT22;34679;51.436;-2.518;2023-05-14T03:03:43;7.60;99.90
48860;DHT22;34679;51.436;-2.518;2023-05-14T03:06:09;7.60;99.90
48860;DHT22;34679;51.436;-2.518;2023-05-14T03:08:35;7.50;99.90
48860;DHT22;34679;51.436;-2.518;2023-05-14T03:11:01;7.40;99.90
48860;DHT22;34679;51.436;-2.518;2023-05-14T03:13:26;7.40;99.90
48860;DHT22;34679;51.436;-2.518;2023-05-14T03:15:52;7.30;99.90
48860;DHT22;34679;51.436;-2.518;2023-05-14T03:18:19;7.30;99.90
48860;DHT22;34679;51.436;-2.518;2023-05-14T03:20:45;7.20;99.90
48860;DHT22;34679;51.436;-2.518;2023-05-14T03:23:11;7.20;99.90
48860;DHT22;34679;51.436;-2.518;2023-05-14T03:25:37;7.30;99.90
48860;DHT22;34679;51.436;-2.518;2023-05-14T03:28:03;7.30;99.90
48860;DHT22;34679;51.436;-2.518;2023-05-14T03:30:29;7.20;99.90
48860;DHT22;34679;51.436;-2.518;2023-05-14T03:32:55;7.20;99.90
48860;DHT22;34679;51.436;-2.518;2023-05-14T03:35:21;7.10;99.90
48860;DHT22;34679;51.436;-2.518;2023-05-14T03:37:46;7.10;99.90
48860;DHT22;34679;51.436;-2.518;2023-05-14T03:40:12;7.10;99.90
48860;DHT22;34679;51.436;-2.518;2023-05-14T03:42:38;7.10;99.90
48860;DHT22;34679;51.436;-2.518;2023-05-14T03:45:04;7.00;99.90
48860;DHT22;34679;51.436;-2.518;2023-05-14T03:47:30;7.00;99.90
48860;DHT22;34679;51.436;-2.518;2023-05-14T03:49:56;6.90;99.90
48860;DHT22;34679;51.436;-2.518;2023-05-14T03:52:22;7.00;99.90
48860;DHT22;34679;51.436;-2.518;2023-05-14T03:54:48;6.90;99.90
48860;DHT22;34679;51.436;-2.518;2023-05-14T03:57:13;6.90;99.90
48860;DHT22;34679;51.436;-2.518;2023-05-14T03:59:39;6.90;99.90
48860;DHT22;34679;51.436;-2.518;2023-05-14T04:02:06;6.90;99.90
48860;DHT22;34679;51.436;-2.518;2023-05-14T04:04:32;6.90;99.90
48860;DHT22;34679;51.436;-2.518;2023-05-14T04:06:57;6.90;99.90
48860;DHT22;34679;51.436;-2.518;2023-05-14T04:09:23;6.90;99.90
48860;DHT22;34679;51.436;-2.518;2023-05-14T04:11:49;6.90;99.90
48860;DHT22;34679;51.436;-2.518;2023-05-14T04:14:14;6.90;99.90
48860;DHT22;34679;51.436;-2.518;2023-05-14T04:16:40;6.90;99.90
48860;DHT22;34679;51.436;-2.518;2023-05-14T04:19:06;6.90;99.90
48860;DHT22;34679;51.436;-2.518;2023-05-14T04:21:31;6.90;99.90
48860;DHT22;34679;51.436;-2.518;2023-05-14T04:23:57;6.90;99.90
48860;DHT22;34679;51.436;-2.518;2023-05-14T04:26:23;7.00;99.90
48860;DHT22;34679;51.436;-2.518;2023-05-14T04:28:48;7.00;99.90
48860;DHT22;34679;51.436;-2.518;2023-05-14T04:31:14;7.10;99.90
48860;DHT22;34679;51.436;-2.518;2023-05-14T04:33:40;7.10;99.90
48860;DHT22;34679;51.436;-2.518;2023-05-14T04:36:06;7.10;99.90
48860;DHT22;34679;51.436;-2.518;2023-05-14T04:38:32;7.10;99.90
48860;DHT22;34679;51.436;-2.518;2023-05-14T04:40:58;7.10;99.90
48860;DHT22;34679;51.436;-2.518;2023-05-14T04:43:24;7.10;99.90
48860;DHT22;34679;51.436;-2.518;2023-05-14T04:45:50;7.10;99.90
48860;DHT22;34679;51.436;-2.518;2023-05-14T04:48:17;7.10;99.90
48860;DHT22;34679;51.436;-2.518;2023-05-14T04:50:43;7.20;99.90
48860;DHT22;34679;51.436;-2.518;2023-05-14T04:53:09;7.20;99.90
48860;DHT22;34679;51.436;-2.518;2023-05-14T04:55:35;7.20;99.90
48860;DHT22;34679;51.436;-2.518;2023-05-14T04:58:01;7.20;99.90
48860;DHT22;34679;51.436;-2.518;2023-05-14T05:00:28;7.30;99.90
48860;DHT22;34679;51.436;-2.518;2023-05-14T05:02:54;7.40;99.90
48860;DHT22;34679;51.436;-2.518;2023-05-14T05:05:19;7.50;99.90
48860;DHT22;34679;51.436;-2.518;2023-05-14T05:07:45;7.60;99.90
48860;DHT22;34679;51.436;-2.518;2023-05-14T05:10:11;7.70;99.90
48860;DHT22;34679;51.436;-2.518;2023-05-14T05:12:37;7.80;99.90
48860;DHT22;34679;51.436;-2.518;2023-05-14T05:15:04;7.90;99.90
48860;DHT22;34679;51.436;-2.518;2023-05-14T05:17:30;7.90;99.90
48860;DHT22;34679;51.436;-2.518;2023-05-14T05:19:55;8.00;99.90
48860;DHT22;34679;51.436;-2.518;2023-05-14T05:22:22;8.10;99.90
48860;DHT22;34679;51.436;-2.518;2023-05-14T05:24:47;8.10;99.90
48860;DHT22;34679;51.436;-2.518;2023-05-14T05:27:13;8.20;99.90
48860;DHT22;34679;51.436;-2.518;2023-05-14T05:29:39;8.20;99.90
48860;DHT22;34679;51.436;-2.518;2023-05-14T05:32:06;8.30;99.90
48860;DHT22;34679;51.436;-2.518;2023-05-14T05:34:32;8.30;99.90
48860;DHT22;34679;51.436;-2.518;2023-05-14T05:36:57;8.40;99.90
48860;DHT22;34679;51.436;-2.518;2023-05-14T05:39:23;8.30;99.90
48860;DHT22;34679;51.436;-2.518;2023-05-14T05:41:49;8.30;99.90
48860;DHT22;34679;51.436;-2.518;2023-05-14T05:44:15;8.30;99.90
48860;DHT22;34679;51.436;-2.518;2023-05-14T05:46:41;8.40;99.90
48860;DHT22;34679;51.436;-2.518;2023-05-14T05:49:06;8.50;99.90
48860;DHT22;34679;51.436;-2.518;2023-05-14T05:51:32;8.60;99.90
48860;DHT22;34679;51.436;-2.518;2023-05-14T05:53:58;8.70;99.90
48860;DHT22;34679;51.436;-2.518;2023-05-14T05:56:24;8.80;99.90
48860;DHT22;34679;51.436;-2.518;2023-05-14T05:58:49;8.90;99.90
48860;DHT22;34679;51.436;-2.518;2023-05-14T06:01:15;9.00;99.90
48860;DHT22;34679;51.436;-2.518;2023-05-14T06:03:41;9.20;99.90
48860;DHT22;34679;51.436;-2.518;2023-05-14T06:06:07;9.20;99.90
48860;DHT22;34679;51.436;-2.518;2023-05-14T06:08:33;9.20;99.90
48860;DHT22;34679;51.436;-2.518;2023-05-14T06:10:59;9.20;99.90
48860;DHT22;34679;51.436;-2.518;2023-05-14T06:13:24;9.30;99.90
48860;DHT22;34679;51.436;-2.518;2023-05-14T06:15:50;9.50;99.90
48860;DHT22;34679;51.436;-2.518;2023-05-14T06:18:16;9.50;99.90
48860;DHT22;34679;51.436;-2.518;2023-05-14T06:20:42;9.60;99.90
48860;DHT22;34679;51.436;-2.518;2023-05-14T06:23:07;9.90;99.90
48860;DHT22;34679;51.436;-2.518;2023-05-14T06:25:33;9.90;99.90
48860;DHT22;34679;51.436;-2.518;2023-05-14T06:27:59;9.90;99.90
48860;DHT22;34679;51.436;-2.518;2023-05-14T06:30:25;10.10;99.90
48860;DHT22;34679;51.436;-2.518;2023-05-14T06:32:50;10.20;99.90
48860;DHT22;34679;51.436;-2.518;2023-05-14T06:35:17;10.30;99.90
48860;DHT22;34679;51.436;-2.518;2023-05-14T06:37:44;10.50;99.90
48860;DHT22;34679;51.436;-2.518;2023-05-14T06:40:11;10.60;99.90
48860;DHT22;34679;51.436;-2.518;2023-05-14T06:42:37;10.50;99.90
48860;DHT22;34679;51.436;-2.518;2023-05-14T06:45:04;10.60;99.90
48860;DHT22;34679;51.436;-2.518;2023-05-14T06:47:29;10.70;99.90
48860;DHT22;34679;51.436;-2.518;2023-05-14T06:49:55;10.80;99.90
48860;DHT22;34679;51.436;-2.518;2023-05-14T06:52:23;10.90;99.90
48860;DHT22;34679;51.436;-2.518;2023-05-14T06:54:49;11.20;99.90
48860;DHT22;34679;51.436;-2.518;2023-05-14T06:57:14;11.10;99.90
48860;DHT22;34679;51.436;-2.518;2023-05-14T06:59:40;11.20;99.90
48860;DHT22;34679;51.436;-2.518;2023-05-14T07:02:06;11.30;99.90
48860;DHT22;34679;51.436;-2.518;2023-05-14T07:04:31;11.40;99.90
48860;DHT22;34679;51.436;-2.518;2023-05-14T07:06:57;11.80;99.90
48860;DHT22;34679;51.436;-2.518;2023-05-14T07:09:23;12.00;99.90
48860;DHT22;34679;51.436;-2.518;2023-05-14T07:11:48;12.10;99.90
48860;DHT22;34679;51.436;-2.518;2023-05-14T07:14:14;12.30;99.90
48860;DHT22;34679;51.436;-2.518;2023-05-14T07:16:40;12.50;99.90
48860;DHT22;34679;51.436;-2.518;2023-05-14T07:19:07;12.50;99.90
48860;DHT22;34679;51.436;-2.518;2023-05-14T07:21:34;12.60;99.90
48860;DHT22;34679;51.436;-2.518;2023-05-14T07:24:00;12.50;99.90
48860;DHT22;34679;51.436;-2.518;2023-05-14T07:26:25;12.70;99.90
48860;DHT22;34679;51.436;-2.518;2023-05-14T07:28:51;12.80;99.90
48860;DHT22;34679;51.436;-2.518;2023-05-14T07:31:16;12.90;99.90
48860;DHT22;34679;51.436;-2.518;2023-05-14T07:33:42;13.00;99.90
48860;DHT22;34679;51.436;-2.518;2023-05-14T07:36:08;13.00;99.90
48860;DHT22;34679;51.436;-2.518;2023-05-14T07:38:34;13.00;99.90
48860;DHT22;34679;51.436;-2.518;2023-05-14T07:40:59;13.10;99.90
48860;DHT22;34679;51.436;-2.518;2023-05-14T07:43:25;13.10;99.90
48860;DHT22;34679;51.436;-2.518;2023-05-14T07:45:51;13.10;99.90
48860;DHT22;34679;51.436;-2.518;2023-05-14T07:48:17;13.20;99.90
48860;DHT22;34679;51.436;-2.518;2023-05-14T07:50:42;13.30;99.90
48860;DHT22;34679;51.436;-2.518;2023-05-14T07:53:08;13.10;99.90
48860;DHT22;34679;51.436;-2.518;2023-05-14T07:55:34;13.10;99.90
48860;DHT22;34679;51.436;-2.518;2023-05-14T07:57:59;13.10;99.90
48860;DHT22;34679;51.436;-2.518;2023-05-14T08:00:25;13.20;99.90
48860;DHT22;34679;51.436;-2.518;2023-05-14T08:02:50;13.10;99.90
48860;DHT22;34679;51.436;-2.518;2023-05-14T08:05:16;13.10;99.90
48860;DHT22;34679;51.436;-2.518;2023-05-14T08:07:43;13.10;99.90
48860;DHT22;34679;51.436;-2.518;2023-05-14T08:10:09;13.30;99.90
48860;DHT22;34679;51.436;-2.518;2023-05-14T08:12:35;13.50;99.90
48860;DHT22;34679;51.436;-2.518;2023-05-14T08:15:01;13.60;99.90
48860;DHT22;34679;51.436;-2.518;2023-05-14T08:17:27;13.60;99.90
48860;DHT22;34679;51.436;-2.518;2023-05-14T08:19:53;13.80;99.90
48860;DHT22;34679;51.436;-2.518;2023-05-14T08:22:19;13.60;99.90
48860;DHT22;34679;51.436;-2.518;2023-05-14T08:24:44;13.70;99.90
48860;DHT22;34679;51.436;-2.518;2023-05-14T08:27:10;13.90;99.90
48860;DHT22;34679;51.436;-2.518;2023-05-14T08:29:36;13.90;99.90
48860;DHT22;34679;51.436;-2.518;2023-05-14T08:32:02;14.00;99.90
48860;DHT22;34679;51.436;-2.518;2023-05-14T08:34:28;14.10;99.90
48860;DHT22;34679;51.436;-2.518;2023-05-14T08:36:54;14.10;99.90
48860;DHT22;34679;51.436;-2.518;2023-05-14T08:39:19;14.10;99.90
48860;DHT22;34679;51.436;-2.518;2023-05-14T08:41:45;14.20;99.90
48860;DHT22;34679;51.436;-2.518;2023-05-14T08:44:18;14.20;99.90
48860;DHT22;34679;51.436;-2.518;2023-05-14T08:46:43;14.40;99.90
48860;DHT22;34679;51.436;-2.518;2023-05-14T08:49:20;14.60;99.90
48860;DHT22;34679;51.436;-2.518;2023-05-14T08:51:49;14.90;99.90
48860;DHT22;34679;51.436;-2.518;2023-05-14T08:54:15;15.10;99.90
48860;DHT22;34679;51.436;-2.518;2023-05-14T08:56:44;15.40;99.90
48860;DHT22;34679;51.436;-2.518;2023-05-14T08:59:12;15.70;99.90
48860;DHT22;34679;51.436;-2.518;2023-05-14T09:01:40;15.80;99.90
48860;DHT22;34679;51.436;-2.518;2023-05-14T09:04:07;15.80;99.90
48860;DHT22;34679;51.436;-2.518;2023-05-14T09:06:35;16.10;99.90
48860;DHT22;34679;51.436;-2.518;2023-05-14T09:09:04;16.30;99.90
48860;DHT22;34679;51.436;-2.518;2023-05-14T09:11:30;16.90;99.90
48860;DHT22;34679;51.436;-2.518;2023-05-14T09:13:56;17.00;99.90
48860;DHT22;34679;51.436;-2.518;2023-05-14T09:16:24;16.70;99.90
48860;DHT22;34679;51.436;-2.518;2023-05-14T09:18:50;17.60;99.90
48860;DHT22;34679;51.436;-2.518;2023-05-14T09:21:17;18.70;99.90
48860;DHT22;34679;51.436;-2.518;2023-05-14T09:23:43;19.40;99.90
48860;DHT22;34679;51.436;-2.518;2023-05-14T09:26:10;20.20;99.90
48860;DHT22;34679;51.436;-2.518;2023-05-14T09:28:39;20.30;99.90
48860;DHT22;34679;51.436;-2.518;2023-05-14T09:31:07;21.20;99.90
48860;DHT22;34679;51.436;-2.518;2023-05-14T09:33:33;21.20;99.90
48860;DHT22;34679;51.436;-2.518;2023-05-14T09:36:00;21.50;99.90
48860;DHT22;34679;51.436;-2.518;2023-05-14T09:38:32;21.40;99.90
48860;DHT22;34679;51.436;-2.518;2023-05-14T09:40:59;21.50;99.90
48860;DHT22;34679;51.436;-2.518;2023-05-14T09:43:25;21.00;99.90
48860;DHT22;34679;51.436;-2.518;2023-05-14T09:45:51;21.70;99.90
48860;DHT22;34679;51.436;-2.518;2023-05-14T09:48:18;21.30;99.90
48860;DHT22;34679;51.436;-2.518;2023-05-14T09:50:45;20.50;99.90
48860;DHT22;34679;51.436;-2.518;2023-05-14T09:53:12;20.90;99.90
48860;DHT22;34679;51.436;-2.518;2023-05-14T09:55:38;21.10;99.90
48860;DHT22;34679;51.436;-2.518;2023-05-14T09:58:04;21.30;99.90
48860;DHT22;34679;51.436;-2.518;2023-05-14T10:00:31;21.50;99.90
48860;DHT22;34679;51.436;-2.518;2023-05-14T10:02:58;22.10;99.90
48860;DHT22;34679;51.436;-2.518;2023-05-14T10:05:24;21.20;99.90
48860;DHT22;34679;51.436;-2.518;2023-05-14T10:07:53;21.30;99.90
48860;DHT22;34679;51.436;-2.518;2023-05-14T10:10:23;22.00;99.90
48860;DHT22;34679;51.436;-2.518;2023-05-14T10:12:57;21.60;99.90
48860;DHT22;34679;51.436;-2.518;2023-05-14T10:15:48;21.30;99.90
48860;DHT22;34679;51.436;-2.518;2023-05-14T10:18:18;22.30;99.90
48860;DHT22;34679;51.436;-2.518;2023-05-14T10:20:55;22.30;99.90
48860;DHT22;34679;51.436;-2.518;2023-05-14T10:23:22;22.50;99.90
48860;DHT22;34679;51.436;-2.518;2023-05-14T10:25:48;22.50;99.90
48860;DHT22;34679;51.436;-2.518;2023-05-14T10:28:14;22.20;99.90
48860;DHT22;34679;51.436;-2.518;2023-05-14T10:30:44;22.60;99.90
48860;DHT22;34679;51.436;-2.518;2023-05-14T10:33:12;22.40;99.90
48860;DHT22;34679;51.436;-2.518;2023-05-14T10:35:49;22.60;99.90
48860;DHT22;34679;51.436;-2.518;2023-05-14T10:38:15;22.50;99.90
48860;DHT22;34679;51.436;-2.518;2023-05-14T10:40:41;22.40;99.90
48860;DHT22;34679;51.436;-2.518;2023-05-14T10:43:07;22.80;99.90
48860;DHT22;34679;51.436;-2.518;2023-05-14T10:45:33;23.00;99.90
48860;DHT22;34679;51.436;-2.518;2023-05-14T10:48:00;22.70;99.90
48860;DHT22;34679;51.436;-2.518;2023-05-14T10:50:26;22.80;99.90
48860;DHT22;34679;51.436;-2.518;2023-05-14T10:52:53;22.90;99.90
48860;DHT22;34679;51.436;-2.518;2023-05-14T10:55:20;22.60;99.90
48860;DHT22;34679;51.436;-2.518;2023-05-14T10:57:46;22.20;99.90
48860;DHT22;34679;51.436;-2.518;2023-05-14T11:00:13;21.60;99.90
48860;DHT22;34679;51.436;-2.518;2023-05-14T11:02:43;21.30;99.90
48860;DHT22;34679;51.436;-2.518;2023-05-14T11:05:11;21.30;99.90
48860;DHT22;34679;51.436;-2.518;2023-05-14T11:07:43;21.20;99.90
48860;DHT22;34679;51.436;-2.518;2023-05-14T11:10:15;21.30;99.90
48860;DHT22;34679;51.436;-2.518;2023-05-14T11:12:43;21.30;99.90
48860;DHT22;34679;51.436;-2.518;2023-05-14T11:15:14;20.80;99.90
48860;DHT22;34679;51.436;-2.518;2023-05-14T11:17:42;20.00;99.90
48860;DHT22;34679;51.436;-2.518;2023-05-14T11:20:09;20.50;99.90
48860;DHT22;34679;51.436;-2.518;2023-05-14T11:22:36;20.30;99.90
48860;DHT22;34679;51.436;-2.518;2023-05-14T11:25:02;20.40;99.90
48860;DHT22;34679;51.436;-2.518;2023-05-14T11:27:28;20.60;99.90
48860;DHT22;34679;51.436;-2.518;2023-05-14T11:29:54;20.60;99.90
48860;DHT22;34679;51.436;-2.518;2023-05-14T11:32:23;20.50;99.90
48860;DHT22;34679;51.436;-2.518;2023-05-14T11:34:48;20.00;99.90
48860;DHT22;34679;51.436;-2.518;2023-05-14T11:37:15;20.00;99.90
48860;DHT22;34679;51.436;-2.518;2023-05-14T11:39:49;20.20;99.90
48860;DHT22;34679;51.436;-2.518;2023-05-14T11:42:15;20.30;99.90
48860;DHT22;34679;51.436;-2.518;2023-05-14T11:44:44;20.10;99.90
48860;DHT22;34679;51.436;-2.518;2023-05-14T11:47:10;20.40;99.90
48860;DHT22;34679;51.436;-2.518;2023-05-14T11:49:36;20.70;99.90
48860;DHT22;34679;51.436;-2.518;2023-05-14T11:52:07;20.80;99.90
48860;DHT22;34679;51.436;-2.518;2023-05-14T11:54:33;21.10;99.90
48860;DHT22;34679;51.436;-2.518;2023-05-14T11:57:05;21.30;99.90
48860;DHT22;34679;51.436;-2.518;2023-05-14T11:59:31;21.50;99.90
48860;DHT22;34679;51.436;-2.518;2023-05-14T12:01:58;21.20;99.90
48860;DHT22;34679;51.436;-2.518;2023-05-14T12:04:24;21.40;99.90
48860;DHT22;34679;51.436;-2.518;2023-05-14T12:06:53;21.70;99.90
48860;DHT22;34679;51.436;-2.518;2023-05-14T12:09:20;21.70;99.90
48860;DHT22;34679;51.436;-2.518;2023-05-14T12:11:47;21.30;99.90
48860;DHT22;34679;51.436;-2.518;2023-05-14T12:14:19;21.50;99.90
48860;DHT22;34679;51.436;-2.518;2023-05-14T12:16:46;21.60;99.90
48860;DHT22;34679;51.436;-2.518;2023-05-14T12:19:17;21.60;99.90
48860;DHT22;34679;51.436;-2.518;2023-05-14T12:21:44;21.40;99.90
48860;DHT22;34679;51.436;-2.518;2023-05-14T12:24:14;21.10;99.90
48860;DHT22;34679;51.436;-2.518;2023-05-14T12:26:46;20.50;99.90
48860;DHT22;34679;51.436;-2.518;2023-05-14T12:29:13;20.40;99.90
48860;DHT22;34679;51.436;-2.518;2023-05-14T12:31:47;20.90;99.90
48860;DHT22;34679;51.436;-2.518;2023-05-14T12:34:13;21.30;99.90
48860;DHT22;34679;51.436;-2.518;2023-05-14T12:36:39;21.40;99.90
48860;DHT22;34679;51.436;-2.518;2023-05-14T12:39:05;21.20;99.90
48860;DHT22;34679;51.436;-2.518;2023-05-14T12:41:31;21.00;99.90
48860;DHT22;34679;51.436;-2.518;2023-05-14T12:43:58;20.80;99.90
48860;DHT22;34679;51.436;-2.518;2023-05-14T12:46:25;21.20;99.90
48860;DHT22;34679;51.436;-2.518;2023-05-14T12:48:52;21.30;99.90
48860;DHT22;34679;51.436;-2.518;2023-05-14T12:51:18;21.50;99.90
48860;DHT22;34679;51.436;-2.518;2023-05-14T12:53:44;21.40;99.90
48860;DHT22;34679;51.436;-2.518;2023-05-14T12:56:10;21.80;99.90
48860;DHT22;34679;51.436;-2.518;2023-05-14T12:58:35;22.00;99.90
48860;DHT22;34679;51.436;-2.518;2023-05-14T13:01:01;22.00;99.90
48860;DHT22;34679;51.436;-2.518;2023-05-14T13:03:27;21.60;99.90
48860;DHT22;34679;51.436;-2.518;2023-05-14T13:05:53;21.50;99.90
48860;DHT22;34679;51.436;-2.518;2023-05-14T13:08:22;21.50;99.90
48860;DHT22;34679;51.436;-2.518;2023-05-14T13:10:54;21.30;99.90
48860;DHT22;34679;51.436;-2.518;2023-05-14T13:13:21;21.40;99.90
48860;DHT22;34679;51.436;-2.518;2023-05-14T13:15:48;21.30;99.20
48860;DHT22;34679;51.436;-2.518;2023-05-14T13:18:15;21.10;99.60
48860;DHT22;34679;51.436;-2.518;2023-05-14T13:20:41;20.80;99.90
48860;DHT22;34679;51.436;-2.518;2023-05-14T13:23:07;20.90;99.90
48860;DHT22;34679;51.436;-2.518;2023-05-14T13:25:33;21.10;99.90
48860;DHT22;34679;51.436;-2.518;2023-05-14T13:27:59;21.40;99.90
48860;DHT22;34679;51.436;-2.518;2023-05-14T13:30:25;21.50;99.90
48860;DHT22;34679;51.436;-2.518;2023-05-14T13:32:51;21.40;99.80
48860;DHT22;34679;51.436;-2.518;2023-05-14T13:35:17;21.10;99.90
48860;DHT22;34679;51.436;-2.518;2023-05-14T13:37:43;21.10;98.70
48860;DHT22;34679;51.436;-2.518;2023-05-14T13:40:09;21.40;98.10
48860;DHT22;34679;51.436;-2.518;2023-05-14T13:42:35;21.60;97.60
48860;DHT22;34679;51.436;-2.518;2023-05-14T13:45:01;21.10;97.10
48860;DHT22;34679;51.436;-2.518;2023-05-14T13:47:28;21.20;98.00
48860;DHT22;34679;51.436;-2.518;2023-05-14T13:49:55;21.20;97.90
48860;DHT22;34679;51.436;-2.518;2023-05-14T13:52:21;21.40;98.50
48860;DHT22;34679;51.436;-2.518;2023-05-14T13:54:47;21.20;98.90
48860;DHT22;34679;51.436;-2.518;2023-05-14T13:57:13;21.30;99.20
48860;DHT22;34679;51.436;-2.518;2023-05-14T13:59:39;21.00;97.00
48860;DHT22;34679;51.436;-2.518;2023-05-14T14:02:04;20.50;97.70
48860;DHT22;34679;51.436;-2.518;2023-05-14T14:04:30;20.60;96.40
48860;DHT22;34679;51.436;-2.518;2023-05-14T14:06:56;20.60;96.00
48860;DHT22;34679;51.436;-2.518;2023-05-14T14:09:24;20.40;96.40
48860;DHT22;34679;51.436;-2.518;2023-05-14T14:11:49;20.60;97.00
48860;DHT22;34679;51.436;-2.518;2023-05-14T14:14:16;20.80;97.00
48860;DHT22;34679;51.436;-2.518;2023-05-14T14:16:42;21.00;96.80
48860;DHT22;34679;51.436;-2.518;2023-05-14T14:19:08;21.20;96.70
48860;DHT22;34679;51.436;-2.518;2023-05-14T14:21:34;21.40;97.00
48860;DHT22;34679;51.436;-2.518;2023-05-14T14:24:00;21.60;96.40
48860;DHT22;34679;51.436;-2.518;2023-05-14T14:26:26;21.60;94.50
48860;DHT22;34679;51.436;-2.518;2023-05-14T14:28:53;21.50;95.10
48860;DHT22;34679;51.436;-2.518;2023-05-14T14:31:19;21.70;96.30
48860;DHT22;34679;51.436;-2.518;2023-05-14T14:33:45;21.80;96.00
48860;DHT22;34679;51.436;-2.518;2023-05-14T14:36:10;21.90;95.70
48860;DHT22;34679;51.436;-2.518;2023-05-14T14:38:36;21.70;95.30
48860;DHT22;34679;51.436;-2.518;2023-05-14T14:41:04;21.50;95.80
48860;DHT22;34679;51.436;-2.518;2023-05-14T14:43:38;21.40;95.20
48860;DHT22;34679;51.436;-2.518;2023-05-14T14:46:04;21.50;96.00
48860;DHT22;34679;51.436;-2.518;2023-05-14T14:48:34;21.80;96.70
48860;DHT22;34679;51.436;-2.518;2023-05-14T14:51:04;22.00;97.20
48860;DHT22;34679;51.436;-2.518;2023-05-14T14:53:30;21.80;94.90
48860;DHT22;34679;51.436;-2.518;2023-05-14T14:55:56;21.70;95.00
48860;DHT22;34679;51.436;-2.518;2023-05-14T14:58:23;21.30;96.10
48860;DHT22;34679;51.436;-2.518;2023-05-14T15:00:50;21.30;96.60
48860;DHT22;34679;51.436;-2.518;2023-05-14T15:03:17;21.30;97.20
48860;DHT22;34679;51.436;-2.518;2023-05-14T15:05:43;20.90;97.40
48860;DHT22;34679;51.436;-2.518;2023-05-14T15:08:09;20.80;98.30
48860;DHT22;34679;51.436;-2.518;2023-05-14T15:10:35;21.10;99.00
48860;DHT22;34679;51.436;-2.518;2023-05-14T15:13:05;21.30;99.10
48860;DHT22;34679;51.436;-2.518;2023-05-14T15:15:34;21.20;99.00
48860;DHT22;34679;51.436;-2.518;2023-05-14T15:18:01;20.70;99.90
48860;DHT22;34679;51.436;-2.518;2023-05-14T15:20:27;20.40;99.90
48860;DHT22;34679;51.436;-2.518;2023-05-14T15:22:52;20.00;99.90